Time;durP1;ratioP1;P1;durP2;ratioP2;P2;SDS_P1;SDS_P2;PMS_P1;PMS_P2;Temp;Humidity;BMP_temperature;BMP_pressure;BME280_temperature;BME280_humidity;BME280_pressure;Samples;Min_cycle;Max_cycle;Signal;HPM_P1;HPM_P2
2022/11/23 05:04:01;;;;;;;1.27;1.27;;;6.70;99.90;;;;;;5790625;23;20282;-65
2022/11/23 05:06:27;;;;;;;2.20;1.77;;;6.60;99.90;;;;;;4938764;29;20285;-62
2022/11/23 05:08:52;;;;;;;1.60;1.50;;;6.60;99.90;;;;;;4936912;29;20211;-62
2022/11/23 05:11:19;;;;;;;2.20;0.93;;;6.50;99.90;;;;;;4936509;29;20212;-63
2022/11/23 05:13:45;;;;;;;1.30;1.30;;;6.50;99.90;;;;;;4935453;29;20208;-64
2022/11/23 05:16:11;;;;;;;1.23;1.23;;;6.40;99.90;;;;;;4919226;29;20183;-63
2022/11/23 05:18:36;;;;;;;1.40;1.10;;;6.40;99.90;;;;;;4921193;29;20179;-64
2022/11/23 05:21:02;;;;;;;2.00;1.60;;;6.40;99.90;;;;;;4942801;29;20197;-62
2022/11/23 05:23:27;;;;;;;1.10;0.77;;;6.30;99.90;;;;;;4940000;29;20218;-62
2022/11/23 05:25:53;;;;;;;2.40;2.10;;;6.30;99.90;;;;;;4941227;29;20183;-62
2022/11/23 05:28:20;;;;;;;1.03;0.90;;;6.30;99.90;;;;;;4940565;29;20182;-63
2022/11/23 05:30:46;;;;;;;2.80;1.30;;;6.30;99.90;;;;;;4939999;29;20194;-64
2022/11/23 05:33:12;;;;;;;1.30;1.20;;;6.20;99.90;;;;;;4939885;29;20183;-62
2022/11/23 05:35:38;;;;;;;2.10;1.10;;;6.20;99.90;;;;;;4942867;29;20443;-65
2022/11/23 05:38:04;;;;;;;2.38;1.13;;;6.20;99.90;;;;;;4940288;29;20241;-63
2022/11/23 05:40:29;;;;;;;1.10;1.00;;;6.20;99.90;;;;;;4939089;29;20184;-63
2022/11/23 05:42:56;;;;;;;0.80;0.80;;;6.10;99.90;;;;;;4938747;29;20515;-62
2022/11/23 05:45:22;;;;;;;1.17;0.93;;;6.10;99.90;;;;;;4938826;29;20241;-63
2022/11/23 05:47:56;;;;;;;2.83;1.15;;;6.10;99.90;;;;;;4941419;29;20181;-65
2022/11/23 05:50:24;;;;;;;1.27;0.85;;;6.10;99.90;;;;;;4940771;29;20233;-63
2022/11/23 05:52:50;;;;;;;1.20;1.15;;;6.10;99.90;;;;;;4939653;29;20969;-64
2022/11/23 05:55:16;;;;;;;3.40;2.10;;;6.00;99.90;;;;;;4921687;29;20196;-63
2022/11/23 05:57:41;;;;;;;1.37;1.30;;;5.90;99.90;;;;;;4927637;29;20203;-65
2022/11/23 06:00:11;;;;;;;0.90;0.90;;;5.80;99.90;;;;;;4919430;29;20423;-63
2022/11/23 06:02:37;;;;;;;2.95;1.50;;;5.70;99.90;;;;;;4902279;29;20545;-62
2022/11/23 06:05:03;;;;;;;2.22;1.30;;;5.60;99.90;;;;;;4919204;29;20280;-64
2022/11/23 06:07:31;;;;;;;2.25;2.08;;;5.60;99.90;;;;;;4935979;29;20230;-62
2022/11/23 06:09:57;;;;;;;1.30;1.20;;;5.50;99.90;;;;;;4938256;29;20178;-64
2022/11/23 06:12:22;;;;;;;3.63;2.93;;;5.40;99.90;;;;;;4921086;29;20275;-63
2022/11/23 06:14:48;;;;;;;5.30;1.53;;;5.30;99.90;;;;;;4937822;29;20200;-64
2022/11/23 06:17:14;;;;;;;1.30;1.30;;;5.30;99.90;;;;;;4923250;29;20175;-64
2022/11/23 06:19:39;;;;;;;1.53;1.30;;;5.30;99.90;;;;;;4919166;29;20551;-64
2022/11/23 06:22:05;;;;;;;1.30;1.20;;;5.30;99.90;;;;;;4902003;29;20490;-63
2022/11/23 06:24:30;;;;;;;2.23;2.03;;;5.30;99.90;;;;;;4918674;29;20194;-64
2022/11/23 06:26:56;;;;;;;2.80;2.20;;;5.30;99.90;;;;;;4930809;29;20185;-65
2022/11/23 06:29:22;;;;;;;1.90;1.77;;;5.30;99.90;;;;;;4938259;29;20205;-63
2022/11/23 06:31:47;;;;;;;4.50;1.50;;;5.20;99.90;;;;;;4937727;29;20644;-64
2022/11/23 06:34:14;;;;;;;2.00;1.80;;;5.20;99.90;;;;;;4937601;29;20245;-64
2022/11/23 06:36:40;;;;;;;1.23;1.17;;;5.20;99.90;;;;;;4927996;29;20710;-64
2022/11/23 06:39:05;;;;;;;1.37;1.27;;;5.10;99.90;;;;;;4918787;29;20266;-64
2022/11/23 06:41:31;;;;;;;3.33;2.67;;;5.20;99.90;;;;;;4918605;29;20253;-64
2022/11/23 06:43:57;;;;;;;1.93;1.13;;;5.20;99.90;;;;;;4917987;29;20227;-62
2022/11/23 06:46:22;;;;;;;2.13;1.87;;;5.20;99.90;;;;;;4918521;29;20187;-64
2022/11/23 06:48:48;;;;;;;1.70;1.60;;;5.20;99.90;;;;;;4918720;29;20185;-62
2022/11/23 06:51:14;;;;;;;1.67;1.10;;;5.20;99.90;;;;;;4918626;29;20198;-63
2022/11/23 06:53:40;;;;;;;0.95;0.95;;;5.30;99.90;;;;;;4917894;29;21577;-64
2022/11/23 06:56:07;;;;;;;1.80;1.05;;;5.30;99.90;;;;;;4918920;29;20521;-64
2022/11/23 06:58:33;;;;;;;0.90;0.90;;;5.40;99.90;;;;;;4918410;29;20182;-62
2022/11/23 07:01:00;;;;;;;0.95;0.95;;;5.40;99.90;;;;;;4918440;29;20645;-64
2022/11/23 07:03:26;;;;;;;6.82;1.10;;;5.50;99.90;;;;;;4917875;29;20184;-63
2022/11/23 07:05:52;;;;;;;1.02;1.02;;;5.50;99.90;;;;;;4920672;29;20209;-63
2022/11/23 07:08:18;;;;;;;7.20;1.70;;;5.50;99.90;;;;;;4937316;29;20260;-62
2022/11/23 07:10:44;;;;;;;1.40;1.30;;;5.50;99.90;;;;;;4937181;29;20179;-64
2022/11/23 07:13:10;;;;;;;4.63;1.55;;;5.50;99.90;;;;;;4935759;29;20676;-63
2022/11/23 07:15:37;;;;;;;1.45;1.35;;;5.40;99.90;;;;;;4936539;29;20198;-62
2022/11/23 07:18:03;;;;;;;2.25;1.55;;;5.40;99.90;;;;;;4936555;29;20575;-63
2022/11/23 07:20:29;;;;;;;1.92;1.83;;;5.40;99.90;;;;;;4937338;29;20169;-64
2022/11/23 07:23:09;;;;;;;3.20;2.03;;;5.50;99.90;;;;;;4936308;29;20175;-63
2022/11/23 07:25:36;;;;;;;2.78;2.30;;;5.70;99.90;;;;;;4936824;29;20188;-62
2022/11/23 07:28:03;;;;;;;1.40;1.30;;;5.80;99.90;;;;;;4917637;29;20525;-64
2022/11/23 07:30:30;;;;;;;1.70;1.55;;;6.00;99.90;;;;;;4917399;29;20170;-63
2022/11/23 07:33:00;;;;;;;4.68;2.50;;;6.00;99.90;;;;;;4927252;29;20551;-64
2022/11/23 07:35:25;;;;;;;2.70;2.20;;;6.00;99.90;;;;;;4919099;29;20190;-63
2022/11/23 07:37:51;;;;;;;2.87;2.30;;;6.00;99.90;;;;;;4936839;29;20184;-63
2022/11/23 07:40:17;;;;;;;8.13;2.83;;;6.00;99.90;;;;;;4936497;29;20445;-64
2022/11/23 07:42:43;;;;;;;1.40;1.40;;;5.90;99.90;;;;;;4928204;29;20184;-62
2022/11/23 07:45:10;;;;;;;1.37;1.30;;;5.90;99.90;;;;;;4917598;29;20194;-64
2022/11/23 07:47:36;;;;;;;6.13;1.70;;;5.80;99.90;;;;;;4917166;29;20508;-63
2022/11/23 07:50:02;;;;;;;1.55;1.45;;;5.80;99.90;;;;;;4917289;29;20205;-64
2022/11/23 07:52:28;;;;;;;2.40;2.17;;;5.70;99.90;;;;;;4922165;29;20251;-63
2022/11/23 07:54:54;;;;;;;2.60;2.40;;;5.80;99.90;;;;;;4936254;29;20945;-63
2022/11/23 07:57:19;;;;;;;2.67;1.47;;;5.90;99.90;;;;;;4935725;29;20170;-65
2022/11/23 07:59:45;;;;;;;2.20;2.00;;;6.00;99.90;;;;;;4936046;29;20594;-61
2022/11/23 08:02:13;;;;;;;2.47;2.30;;;6.00;99.90;;;;;;4933219;29;20186;-63
2022/11/23 08:04:39;;;;;;;7.90;3.42;;;6.20;99.90;;;;;;4933373;29;20700;-62
2022/11/23 08:07:04;;;;;;;2.10;1.93;;;6.50;99.90;;;;;;4935813;29;20195;-63
2022/11/23 08:09:30;;;;;;;2.57;2.40;;;7.00;99.90;;;;;;4936210;29;20184;-62
2022/11/23 08:11:56;;;;;;;1.10;1.10;;;7.70;99.90;;;;;;4936052;29;20256;-62
2022/11/23 08:14:22;;;;;;;2.23;2.13;;;8.50;99.90;;;;;;4923976;29;20454;-63
2022/11/23 08:16:49;;;;;;;1.70;1.60;;;9.30;99.90;;;;;;4900267;29;20190;-65
2022/11/23 08:19:15;;;;;;;1.50;1.30;;;10.10;99.90;;;;;;4917382;29;20897;-65
2022/11/23 08:21:41;;;;;;;2.83;1.50;;;10.80;99.90;;;;;;4917251;29;20454;-65
2022/11/23 08:24:07;;;;;;;2.37;1.70;;;11.60;99.90;;;;;;4925322;29;20463;-64
2022/11/23 08:26:32;;;;;;;2.63;1.67;;;12.20;99.90;;;;;;4936112;29;20188;-64
2022/11/23 08:28:58;;;;;;;1.80;1.70;;;12.70;99.90;;;;;;4936002;29;20204;-66
2022/11/23 08:31:24;;;;;;;2.60;1.70;;;13.20;97.90;;;;;;4935821;29;20209;-65
2022/11/23 08:33:49;;;;;;;1.73;1.63;;;13.70;97.30;;;;;;4928961;29;20203;-63
2022/11/23 08:36:15;;;;;;;1.93;1.83;;;14.20;96.40;;;;;;4916789;29;20461;-63
2022/11/23 08:38:41;;;;;;;2.60;1.70;;;14.80;96.30;;;;;;4916808;29;20213;-63
2022/11/23 08:41:07;;;;;;;1.87;1.60;;;15.40;94.00;;;;;;4916968;29;20194;-65
2022/11/23 08:43:33;;;;;;;2.17;1.93;;;15.90;92.90;;;;;;4920094;29;20192;-65
2022/11/23 08:46:00;;;;;;;1.40;1.30;;;16.30;91.80;;;;;;4917054;29;20430;-65
2022/11/23 08:48:26;;;;;;;2.77;1.83;;;16.70;90.70;;;;;;4917083;29;20466;-66
2022/11/23 08:50:52;;;;;;;1.50;1.40;;;16.90;89.90;;;;;;4916958;29;20466;-66
2022/11/23 08:53:18;;;;;;;3.73;1.43;;;17.20;89.20;;;;;;4916466;29;20418;-64
2022/11/23 08:55:44;;;;;;;3.63;1.50;;;17.50;87.60;;;;;;4916587;29;20455;-66
2022/11/23 08:58:10;;;;;;;1.67;1.40;;;17.60;86.20;;;;;;4929010;29;20268;-63
2022/11/23 09:00:36;;;;;;;1.37;1.27;;;17.70;85.60;;;;;;4935814;29;20392;-65
2022/11/23 09:03:02;;;;;;;1.73;1.33;;;17.70;84.10;;;;;;4935241;29;20409;-64
2022/11/23 09:05:29;;;;;;;1.00;1.00;;;17.60;83.30;;;;;;4924999;29;20460;-65
2022/11/23 09:07:58;;;;;;;2.23;1.37;;;17.50;85.00;;;;;;4901957;29;20779;-65
2022/11/23 09:10:24;;;;;;;2.20;2.00;;;17.50;86.30;;;;;;4920430;29;20464;-62
2022/11/23 09:12:50;;;;;;;4.10;1.40;;;17.60;87.70;;;;;;4920103;29;20473;-62
2022/11/23 09:15:16;;;;;;;5.80;2.03;;;17.70;86.00;;;;;;4927578;29;20214;-64
2022/11/23 09:17:42;;;;;;;1.27;1.20;;;17.70;86.80;;;;;;4939083;29;20268;-64
2022/11/23 09:20:09;;;;;;;4.47;0.90;;;17.90;82.80;;;;;;4939086;29;20513;-66
2022/11/23 09:22:34;;;;;;;2.47;1.50;;;18.00;82.80;;;;;;4938822;29;20188;-61
2022/11/23 09:25:00;;;;;;;3.30;1.40;;;18.10;80.90;;;;;;4933453;29;20473;-65
2022/11/23 09:27:26;;;;;;;0.77;0.77;;;18.00;80.40;;;;;;4903288;29;20655;-65
2022/11/23 09:29:51;;;;;;;1.33;1.23;;;18.00;81.20;;;;;;4920123;29;20393;-66
2022/11/23 09:32:17;;;;;;;1.53;1.10;;;18.10;81.30;;;;;;4920048;29;20204;-66
2022/11/23 09:34:44;;;;;;;1.00;0.90;;;18.00;79.10;;;;;;4922137;29;20732;-64
2022/11/23 09:37:10;;;;;;;1.00;0.90;;;17.70;80.00;;;;;;4938977;29;20174;-63
2022/11/23 09:39:36;;;;;;;2.73;1.70;;;17.50;81.00;;;;;;4938901;29;20478;-65
2022/11/23 09:42:12;;;;;;;4.57;1.23;;;17.60;81.20;;;;;;4938809;29;20816;-63
2022/11/23 09:45:03;;;;;;;1.83;1.50;;;17.70;80.00;;;;;;4936086;29;20296;-66
2022/11/23 09:47:55;;;;;;;1.63;1.07;;;17.90;80.30;;;;;;4919975;29;20414;-64
2022/11/23 09:50:54;;;;;;;1.60;1.50;;;17.80;78.40;;;;;;4919928;29;20521;-65
2022/11/23 09:53:23;;;;;;;1.80;1.70;;;17.50;79.70;;;;;;4906713;29;20438;-64
2022/11/23 09:55:54;;;;;;;0.90;0.87;;;17.40;80.50;;;;;;4930168;29;20747;-63
2022/11/23 09:58:23;;;;;;;1.40;1.30;;;17.40;80.20;;;;;;4924435;29;20419;-67
2022/11/23 10:00:52;;;;;;;2.00;1.40;;;17.40;80.20;;;;;;4919549;29;20422;-64
2022/11/23 10:03:17;;;;;;;1.73;1.20;;;17.40;80.70;;;;;;4919181;29;20406;-62
2022/11/23 10:06:13;;;;;;;1.80;1.47;;;17.70;79.60;;;;;;4919286;29;20898;-65
2022/11/23 10:09:15;;;;;;;1.80;1.63;;;17.80;78.80;;;;;;4934045;29;20181;-64
2022/11/23 10:11:54;;;;;;;2.70;1.40;;;17.90;79.00;;;;;;4938217;29;20448;-63
2022/11/23 10:14:46;;;;;;;2.43;1.07;;;17.80;78.00;;;;;;4937832;29;20439;-65
2022/11/23 10:17:31;;;;;;;1.70;1.27;;;17.70;79.10;;;;;;4907395;29;20552;-63
2022/11/23 10:20:14;;;;;;;1.20;1.10;;;17.50;78.50;;;;;;4918370;29;20402;-65
2022/11/23 10:22:46;;;;;;;1.57;1.27;;;17.40;79.30;;;;;;4919212;29;20418;-64
2022/11/23 10:25:18;;;;;;;4.90;1.20;;;17.10;79.30;;;;;;4919186;29;20426;-65
2022/11/23 10:27:47;;;;;;;0.90;0.90;;;16.80;79.50;;;;;;4926011;29;21002;-64
2022/11/23 10:30:15;;;;;;;1.07;1.07;;;16.40;80.90;;;;;;4938047;29;21001;-63
2022/11/23 10:32:47;;;;;;;1.47;0.93;;;16.30;81.40;;;;;;4937413;29;20546;-66
2022/11/23 10:35:34;;;;;;;3.03;1.13;;;16.30;82.10;;;;;;4937581;29;20457;-63
2022/11/23 10:38:17;;;;;;;0.90;0.70;;;16.20;81.10;;;;;;4911451;29;20450;-66
2022/11/23 10:41:06;;;;;;;1.60;1.03;;;16.20;80.60;;;;;;4918623;29;20414;-66
2022/11/23 10:43:42;;;;;;;0.80;0.80;;;16.20;80.50;;;;;;4918530;29;20763;-64
2022/11/23 10:46:30;;;;;;;1.80;0.80;;;16.10;80.10;;;;;;4918913;29;20395;-63
2022/11/23 10:49:18;;;;;;;1.33;1.20;;;16.10;80.20;;;;;;4934882;29;20933;-62
2022/11/23 10:52:05;;;;;;;0.83;0.77;;;16.00;80.10;;;;;;4937616;29;20464;-65
2022/11/23 10:54:35;;;;;;;1.50;1.40;;;15.80;79.70;;;;;;4920379;29;20445;-64
2022/11/23 10:57:19;;;;;;;2.00;1.00;;;15.50;81.10;;;;;;4953144;29;20413;-61
2022/11/23 11:00:13;;;;;;;2.23;1.20;;;15.00;81.30;;;;;;4937449;29;20464;-65
2022/11/23 11:02:40;;;;;;;1.00;0.97;;;14.20;83.00;;;;;;4937176;29;20417;-65
2022/11/23 11:05:35;;;;;;;1.17;0.93;;;13.40;85.30;;;;;;4937171;29;20511;-65
2022/11/23 11:08:13;;;;;;;3.50;1.40;;;12.70;88.30;;;;;;4911291;29;20422;-67
2022/11/23 11:10:41;;;;;;;2.47;1.70;;;12.30;90.20;;;;;;4918512;29;20430;-66
2022/11/23 11:13:23;;;;;;;5.70;1.30;;;11.90;90.70;;;;;;4917769;29;20974;-68
2022/11/23 11:16:05;;;;;;;1.37;1.27;;;11.60;92.00;;;;;;4918266;29;20945;-62
2022/11/23 11:18:33;;;;;;;2.10;1.30;;;11.30;92.70;;;;;;4929533;29;20434;-63
2022/11/23 11:21:17;;;;;;;1.20;1.10;;;11.20;93.30;;;;;;4937263;29;20517;-73
2022/11/23 11:24:06;;;;;;;3.30;1.67;;;11.10;93.60;;;;;;4936599;29;20423;-65
2022/11/23 11:26:34;;;;;;;1.43;1.40;;;10.90;94.30;;;;;;4936498;29;20187;-65
2022/11/23 11:29:03;;;;;;;1.20;0.90;;;10.90;93.60;;;;;;4921285;29;20422;-63
2022/11/23 11:31:57;;;;;;;2.28;1.33;;;10.80;93.50;;;;;;4916767;29;20230;-63
2022/11/23 11:34:28;;;;;;;1.60;1.50;;;10.70;93.90;;;;;;4917286;29;20198;-62
2022/11/23 11:37:12;;;;;;;1.38;1.10;;;10.60;94.30;;;;;;4917869;29;20502;-62
2022/11/23 11:39:48;;;;;;;1.52;1.20;;;10.60;94.40;;;;;;4900185;29;20190;-65
2022/11/23 11:42:32;;;;;;;1.58;1.02;;;10.60;94.80;;;;;;4915987;29;20647;-63
2022/11/23 11:44:59;;;;;;;1.25;1.20;;;10.50;94.80;;;;;;4917119;29;20289;-66
2022/11/23 11:47:30;;;;;;;1.85;1.35;;;10.50;94.50;;;;;;4900865;29;20181;-62
2022/11/23 11:50:01;;;;;;;2.35;1.35;;;10.50;94.10;;;;;;4917716;29;20177;-62
2022/11/23 11:52:34;;;;;;;1.50;1.30;;;10.50;94.40;;;;;;4922011;29;20202;-64
2022/11/23 11:55:06;;;;;;;1.88;1.70;;;10.50;94.60;;;;;;4935205;29;20198;-65
2022/11/23 11:57:57;;;;;;;1.95;1.08;;;10.50;94.80;;;;;;4934731;29;20174;-65
2022/11/23 12:00:23;;;;;;;1.10;1.00;;;10.50;94.50;;;;;;4934817;29;20154;-65
2022/11/23 12:03:05;;;;;;;2.50;2.20;;;10.50;94.40;;;;;;4926803;29;20213;-65
2022/11/23 12:05:51;;;;;;;1.42;1.33;;;10.50;94.10;;;;;;4915669;29;20214;-62
2022/11/23 12:08:31;;;;;;;2.97;2.10;;;10.50;94.20;;;;;;4922171;29;20285;-64
2022/11/23 12:11:00;;;;;;;2.03;1.45;;;10.40;94.30;;;;;;4935917;29;20549;-64
2022/11/23 12:13:30;;;;;;;0.90;0.90;;;10.50;94.30;;;;;;4935881;29;20182;-63
2022/11/23 12:16:14;;;;;;;1.38;1.17;;;10.40;94.50;;;;;;4936045;29;20174;-64
2022/11/23 12:19:02;;;;;;;1.67;1.30;;;10.50;94.50;;;;;;4927495;29;20646;-65
2022/11/23 12:21:58;;;;;;;1.05;1.05;;;10.50;94.00;;;;;;4917893;29;20216;-64
2022/11/23 12:24:54;;;;;;;5.75;1.23;;;10.50;93.60;;;;;;4916830;29;20294;-66
2022/11/23 12:28:02;;;;;;;1.35;0.73;;;10.60;93.10;;;;;;4917247;29;20661;-65
2022/11/23 12:30:40;;;;;;;1.75;1.25;;;10.60;93.10;;;;;;4925952;29;20197;-63
2022/11/23 12:33:27;;;;;;;1.25;1.15;;;10.50;92.90;;;;;;4935771;29;20547;-64
2022/11/23 12:36:07;;;;;;;3.33;1.35;;;10.60;92.40;;;;;;4936073;29;20177;-65
2022/11/23 12:39:04;;;;;;;0.95;0.95;;;10.50;92.90;;;;;;4930000;29;20583;-64
2022/11/23 12:41:44;;;;;;;1.58;1.48;;;10.60;93.60;;;;;;4917081;29;20185;-65
2022/11/23 12:44:31;;;;;;;0.80;0.80;;;10.60;93.70;;;;;;4920618;29;20194;-65
2022/11/23 12:47:23;;;;;;;0.75;0.75;;;10.70;93.50;;;;;;4921202;29;20185;-64
2022/11/23 12:49:53;;;;;;;0.98;0.98;;;10.70;93.10;;;;;;4936899;29;20182;-64
2022/11/23 12:52:42;;;;;;;1.85;1.30;;;10.70;92.10;;;;;;4939731;29;20566;-67
2022/11/23 12:55:28;;;;;;;4.00;1.17;;;10.60;92.70;;;;;;4939630;29;20201;-64
2022/11/23 12:58:18;;;;;;;0.63;0.60;;;10.70;92.50;;;;;;4938829;29;20169;-64
2022/11/23 13:00:56;;;;;;;2.03;0.65;;;10.70;92.20;;;;;;4920708;29;20182;-63
2022/11/23 13:03:40;;;;;;;0.90;0.90;;;10.70;91.50;;;;;;4904657;29;20190;-65
2022/11/23 13:06:22;;;;;;;0.60;0.60;;;10.70;91.30;;;;;;4920538;29;20237;-65
2022/11/23 13:08:57;;;;;;;0.70;0.57;;;10.70;91.60;;;;;;4920717;29;20178;-65
2022/11/23 13:11:34;;;;;;;0.60;0.60;;;10.60;91.90;;;;;;4932316;29;20597;-66
2022/11/23 13:14:22;;;;;;;0.50;0.50;;;10.70;92.00;;;;;;4938789;29;20280;-64
2022/11/23 13:17:12;;;;;;;0.60;0.50;;;10.70;92.30;;;;;;4939411;29;20206;-66
2022/11/23 13:20:11;;;;;;;1.77;0.68;;;10.60;92.50;;;;;;4938898;29;20178;-66
2022/11/23 13:22:42;;;;;;;1.20;1.10;;;10.60;92.90;;;;;;4938986;29;20515;-65
2022/11/23 13:25:11;;;;;;;0.95;0.82;;;10.50;92.90;;;;;;4921884;29;20656;-66
2022/11/23 13:27:58;;;;;;;1.83;1.02;;;10.60;93.50;;;;;;4933529;29;20191;-67
2022/11/23 13:30:31;;;;;;;0.50;0.50;;;10.50;93.90;;;;;;4938907;29;20544;-64
2022/11/23 13:32:59;;;;;;;0.60;0.60;;;10.60;93.70;;;;;;4930482;29;20217;-69
2022/11/23 13:35:28;;;;;;;4.10;0.60;;;10.60;93.80;;;;;;4930933;29;20225;-66
2022/11/23 13:37:56;;;;;;;0.70;0.70;;;10.50;94.30;;;;;;4938297;29;20170;-64
2022/11/23 13:40:23;;;;;;;1.52;0.70;;;10.50;94.40;;;;;;4919818;29;20469;-66
2022/11/23 13:42:51;;;;;;;0.50;0.50;;;10.60;94.80;;;;;;4919379;29;20186;-66
2022/11/23 13:45:24;;;;;;;0.60;0.60;;;10.60;95.10;;;;;;4919170;29;20213;-62
2022/11/23 13:48:01;;;;;;;0.43;0.43;;;10.60;95.20;;;;;;4920810;29;20171;-65
2022/11/23 13:50:27;;;;;;;1.15;1.02;;;10.70;95.20;;;;;;4938900;29;20290;-63
2022/11/23 13:52:53;;;;;;;0.97;0.60;;;10.60;95.10;;;;;;4937837;29;20292;-64
2022/11/23 13:55:33;;;;;;;0.60;0.60;;;10.60;95.60;;;;;;4937652;29;20202;-64
2022/11/23 13:58:23;;;;;;;1.02;0.70;;;10.60;95.20;;;;;;4937731;29;20462;-64
2022/11/23 14:00:51;;;;;;;1.30;0.88;;;10.60;95.50;;;;;;4937749;29;20195;-64
2022/11/23 14:03:41;;;;;;;0.80;0.80;;;10.70;95.90;;;;;;4922555;29;20190;-65
2022/11/23 14:06:19;;;;;;;2.70;1.52;;;10.70;95.30;;;;;;4917383;29;20197;-66
2022/11/23 14:08:46;;;;;;;0.65;0.65;;;10.70;95.50;;;;;;4917494;29;20174;-63
2022/11/23 14:11:16;;;;;;;0.50;0.40;;;10.70;95.50;;;;;;4917512;29;20213;-63
2022/11/23 14:13:56;;;;;;;0.63;0.63;;;10.70;95.70;;;;;;4932202;29;20238;-66
2022/11/23 14:16:58;;;;;;;0.50;0.45;;;10.60;95.70;;;;;;4937444;29;20579;-68
2022/11/23 14:19:42;;;;;;;0.52;0.52;;;10.60;95.70;;;;;;4923620;29;20508;-62
2022/11/23 14:22:26;;;;;;;0.40;0.40;;;10.60;95.50;;;;;;4935088;29;20269;-66
2022/11/23 14:24:54;;;;;;;1.42;0.98;;;10.60;95.50;;;;;;4928319;29;20196;-63
2022/11/23 14:27:50;;;;;;;1.23;1.05;;;10.50;95.60;;;;;;4936077;29;20174;-64
2022/11/23 14:30:22;;;;;;;1.13;0.70;;;10.50;95.50;;;;;;4938208;29;20186;-65
2022/11/23 14:33:25;;;;;;;2.55;2.05;;;10.50;95.60;;;;;;4929342;29;20214;-65
2022/11/23 14:36:21;;;;;;;3.50;0.98;;;10.50;95.80;;;;;;4918965;29;20175;-64
2022/11/23 14:39:30;;;;;;;1.70;1.02;;;10.40;95.90;;;;;;4918886;29;20200;-66
2022/11/23 14:42:00;;;;;;;2.05;1.10;;;10.40;95.80;;;;;;4920721;29;20274;-64
2022/11/23 14:44:28;;;;;;;1.48;0.93;;;10.40;95.80;;;;;;4937424;29;20201;-65
2022/11/23 14:47:08;;;;;;;1.00;0.70;;;10.40;96.00;;;;;;4933333;29;20186;-63
2022/11/23 14:49:35;;;;;;;1.77;0.50;;;10.30;96.00;;;;;;4918782;29;20534;-65
2022/11/23 14:52:03;;;;;;;0.57;0.57;;;10.30;95.70;;;;;;4921729;29;20223;-65
2022/11/23 14:54:29;;;;;;;1.30;1.13;;;10.20;95.60;;;;;;4917006;29;20202;-63
2022/11/23 14:57:05;;;;;;;2.38;0.75;;;10.20;95.70;;;;;;4937573;29;20178;-64
2022/11/23 14:59:37;;;;;;;1.10;1.10;;;10.10;95.80;;;;;;4920561;29;20240;-64
2022/11/23 15:02:12;;;;;;;1.23;0.93;;;10.10;95.90;;;;;;4937205;29;20174;-65
2022/11/23 15:05:04;;;;;;;1.55;1.20;;;10.00;96.00;;;;;;4931706;29;20196;-63
2022/11/23 15:07:50;;;;;;;0.95;0.75;;;10.00;95.90;;;;;;4918287;29;20179;-66
2022/11/23 15:10:46;;;;;;;0.52;0.52;;;9.90;96.20;;;;;;4928479;29;20185;-65
2022/11/23 15:13:20;;;;;;;0.93;0.90;;;9.80;96.00;;;;;;4913357;29;20208;-64
2022/11/23 15:15:48;;;;;;;0.52;0.52;;;9.70;96.10;;;;;;4937128;29;20191;-63
2022/11/23 15:18:28;;;;;;;1.08;0.80;;;9.70;96.30;;;;;;4937189;29;20178;-65
2022/11/23 15:20:53;;;;;;;0.98;0.98;;;9.60;96.30;;;;;;4922413;29;20196;-65
2022/11/23 15:23:21;;;;;;;1.00;0.90;;;9.50;96.60;;;;;;4918163;29;20182;-63
2022/11/23 15:25:55;;;;;;;0.70;0.70;;;9.40;96.40;;;;;;4918086;29;20892;-63
2022/11/23 15:28:25;;;;;;;1.23;1.13;;;9.30;96.50;;;;;;4924585;29;20610;-65
2022/11/23 15:30:51;;;;;;;3.33;0.90;;;9.20;96.50;;;;;;4936608;29;20186;-62
2022/11/23 15:33:20;;;;;;;0.75;0.63;;;9.10;96.80;;;;;;4935932;29;20183;-63
2022/11/23 15:35:45;;;;;;;1.23;1.10;;;9.00;97.30;;;;;;4931905;29;20173;-67
2022/11/23 15:38:14;;;;;;;1.10;1.00;;;8.90;97.60;;;;;;4924547;29;20238;-64
2022/11/23 15:40:45;;;;;;;1.67;0.95;;;8.80;97.70;;;;;;4917925;29;20434;-66
2022/11/23 15:43:17;;;;;;;0.93;0.68;;;8.70;98.10;;;;;;4917327;29;20181;-66
2022/11/23 15:45:42;;;;;;;1.40;0.85;;;8.60;98.30;;;;;;4936131;29;20208;-67
2022/11/23 15:48:20;;;;;;;1.10;1.10;;;8.60;98.60;;;;;;4925709;29;20174;-63
2022/11/23 15:50:51;;;;;;;1.52;1.00;;;8.60;98.90;;;;;;4917654;29;20249;-65
2022/11/23 15:53:17;;;;;;;1.38;1.27;;;8.50;99.00;;;;;;4918238;29;20178;-63
2022/11/23 15:55:43;;;;;;;0.98;0.98;;;8.50;99.00;;;;;;4931724;29;20197;-65
2022/11/23 15:58:14;;;;;;;0.77;0.75;;;8.50;99.20;;;;;;4925330;29;20258;-65
2022/11/23 16:00:45;;;;;;;2.05;1.33;;;8.50;99.30;;;;;;4917816;29;20185;-65
2022/11/23 16:03:23;;;;;;;0.93;0.93;;;8.40;99.40;;;;;;4917296;29;20681;-63
2022/11/23 16:06:27;;;;;;;0.80;0.80;;;8.40;99.50;;;;;;4936006;29;20197;-66
2022/11/23 16:08:52;;;;;;;2.15;1.33;;;8.40;99.40;;;;;;4935522;29;20260;-64
2022/11/23 16:11:34;;;;;;;1.50;1.20;;;8.40;99.60;;;;;;4935907;29;20201;-63
2022/11/23 16:14:17;;;;;;;1.20;1.10;;;8.40;99.90;;;;;;4923493;29;20614;-64
2022/11/23 16:16:44;;;;;;;2.40;1.40;;;8.40;99.70;;;;;;4933044;29;20262;-65
2022/11/23 16:19:28;;;;;;;1.48;1.38;;;8.40;99.60;;;;;;4936212;29;20570;-70
2022/11/23 16:22:01;;;;;;;1.55;1.40;;;8.50;99.60;;;;;;4926385;29;20181;-70
2022/11/23 16:24:28;;;;;;;1.75;1.02;;;8.50;99.50;;;;;;4929823;29;20198;-68
2022/11/23 16:26:53;;;;;;;0.60;0.60;;;8.60;99.40;;;;;;4927439;29;20563;-66
2022/11/23 16:29:39;;;;;;;2.00;1.87;;;8.70;99.30;;;;;;4922739;29;20264;-68
2022/11/23 16:32:18;;;;;;;1.38;1.27;;;8.80;99.20;;;;;;4930886;29;20221;-66
2022/11/23 16:34:44;;;;;;;1.73;1.63;;;8.80;99.00;;;;;;4926345;29;20202;-67
2022/11/23 16:37:10;;;;;;;1.80;1.70;;;8.90;99.00;;;;;;4935318;29;20685;-66
2022/11/23 16:39:35;;;;;;;2.03;1.30;;;8.90;99.10;;;;;;4935895;29;20538;-66
2022/11/23 16:42:01;;;;;;;1.10;1.00;;;8.90;99.10;;;;;;4926620;29;20182;-64
2022/11/23 16:44:28;;;;;;;1.37;0.70;;;8.90;98.90;;;;;;4916320;29;20674;-64
2022/11/23 16:46:54;;;;;;;1.20;1.10;;;9.00;98.60;;;;;;4916712;29;20338;-63
2022/11/23 16:49:22;;;;;;;1.70;1.13;;;9.00;98.50;;;;;;4916836;29;20261;-64
2022/11/23 16:51:50;;;;;;;2.45;1.20;;;9.10;98.50;;;;;;4917074;29;20682;-66
2022/11/23 16:54:19;;;;;;;2.05;1.20;;;9.10;98.50;;;;;;4916493;29;20198;-66
2022/11/23 16:56:45;;;;;;;1.40;1.27;;;9.10;98.30;;;;;;4916939;29;20209;-63
2022/11/23 16:59:17;;;;;;;1.17;1.17;;;9.20;98.40;;;;;;4900049;29;20210;-64
2022/11/23 17:01:46;;;;;;;1.15;0.95;;;9.20;98.30;;;;;;4928502;29;20256;-63
2022/11/23 17:04:15;;;;;;;1.00;1.00;;;9.10;98.70;;;;;;4935262;29;20205;-65
2022/11/23 17:06:44;;;;;;;3.25;1.70;;;9.10;99.10;;;;;;4935640;29;20566;-64
2022/11/23 17:09:09;;;;;;;1.88;1.38;;;9.10;99.90;;;;;;4935753;29;20187;-63
2022/11/23 17:11:40;;;;;;;1.07;1.00;;;9.00;99.90;;;;;;4930332;29;20288;-62
2022/11/23 17:14:06;;;;;;;0.90;0.90;;;8.90;99.90;;;;;;4917322;29;20754;-65
2022/11/23 17:16:33;;;;;;;0.90;0.90;;;8.90;99.90;;;;;;4920282;29;20182;-66
2022/11/23 17:18:58;;;;;;;1.98;1.77;;;8.80;99.90;;;;;;4939216;29;20429;-65
2022/11/23 17:21:24;;;;;;;1.33;1.20;;;8.70;99.90;;;;;;4936594;29;20534;-64
2022/11/23 17:23:50;;;;;;;1.23;1.13;;;8.70;99.90;;;;;;4935321;29;20236;-64
2022/11/23 17:26:28;;;;;;;1.40;1.30;;;8.60;99.90;;;;;;4935891;29;20180;-64
2022/11/23 17:28:54;;;;;;;1.45;1.20;;;8.60;99.90;;;;;;4934658;29;20181;-64
2022/11/23 17:31:20;;;;;;;1.42;1.05;;;8.50;99.90;;;;;;4937785;29;20197;-64
2022/11/23 17:33:46;;;;;;;0.70;0.70;;;8.50;99.90;;;;;;4938168;29;20304;-63
2022/11/23 17:36:11;;;;;;;1.23;1.13;;;8.40;99.90;;;;;;4939372;29;20173;-65
2022/11/23 17:38:37;;;;;;;0.80;0.80;;;8.40;99.90;;;;;;4930701;29;20178;-63
2022/11/23 17:41:03;;;;;;;1.40;1.10;;;8.40;99.90;;;;;;4934229;29;20193;-66
2022/11/23 17:43:30;;;;;;;2.53;1.45;;;8.40;99.90;;;;;;4919501;29;20182;-65
2022/11/23 17:45:56;;;;;;;1.42;1.33;;;8.40;99.90;;;;;;4920132;29;20179;-67
2022/11/23 17:48:21;;;;;;;2.37;1.00;;;8.40;99.90;;;;;;4936844;29;20170;-63
2022/11/23 17:50:47;;;;;;;2.10;1.70;;;8.30;99.90;;;;;;4929069;29;20961;-64
2022/11/23 17:53:13;;;;;;;2.78;1.10;;;8.30;99.90;;;;;;4919251;29;20212;-64
2022/11/23 17:55:40;;;;;;;1.00;1.00;;;8.30;99.90;;;;;;4919776;29;20670;-65
2022/11/23 17:58:06;;;;;;;1.33;1.23;;;8.20;99.90;;;;;;4936867;29;20422;-65
2022/11/23 18:00:32;;;;;;;1.70;1.07;;;8.20;99.90;;;;;;4937930;29;20172;-67
2022/11/23 18:02:58;;;;;;;4.38;3.05;;;8.20;99.90;;;;;;4932476;29;20433;-63
2022/11/23 18:05:23;;;;;;;3.40;2.77;;;8.20;99.90;;;;;;4932087;29;20217;-65
2022/11/23 18:07:49;;;;;;;1.20;1.20;;;8.10;99.90;;;;;;4928695;29;20268;-64
2022/11/23 18:10:15;;;;;;;1.03;1.00;;;8.00;99.90;;;;;;4926342;29;20261;-64
2022/11/23 18:12:43;;;;;;;1.05;1.05;;;8.00;99.90;;;;;;4918953;29;20516;-65
2022/11/23 18:15:09;;;;;;;1.80;1.70;;;7.90;99.90;;;;;;4919088;29;20222;-65
2022/11/23 18:17:35;;;;;;;0.95;0.95;;;7.80;99.90;;;;;;4926195;29;20266;-61
2022/11/23 18:20:02;;;;;;;1.63;1.20;;;7.80;99.90;;;;;;4938381;29;20268;-65
2022/11/23 18:22:28;;;;;;;1.00;1.00;;;7.80;99.90;;;;;;4937876;29;20846;-66